createdAt,value
2022-12-18T00:00:43.113Z,100531.00
2022-12-18T00:02:16.503Z,100521.00
2022-12-18T00:03:49.922Z,100518.00
2022-12-18T00:05:23.632Z,100514.00
2022-12-18T00:06:56.213Z,100523.00
2022-12-18T00:08:30.217Z,100528.00
2022-12-18T00:10:03.455Z,100527.00
2022-12-18T00:11:37.041Z,100523.00
2022-12-18T00:13:10.591Z,100526.00
2022-12-18T00:14:45.301Z,100525.00
2022-12-18T00:16:21.929Z,100533.00
2022-12-18T00:17:55.176Z,100532.00
2022-12-18T00:19:28.799Z,100532.00
2022-12-18T00:21:02.306Z,100525.00
2022-12-18T00:22:35.433Z,100532.00
2022-12-18T00:24:09.063Z,100535.00
2022-12-18T00:25:42.370Z,100546.00
2022-12-18T00:27:15.457Z,100543.00
2022-12-18T00:28:49.632Z,100541.00
2022-12-18T00:30:24.276Z,100538.00
2022-12-18T00:31:57.606Z,100545.00
2022-12-18T00:33:30.412Z,100551.00
2022-12-18T00:35:03.853Z,100546.00
2022-12-18T00:36:37.143Z,100529.00
2022-12-18T00:38:10.494Z,100546.00
2022-12-18T00:39:43.800Z,100531.00
2022-12-18T00:41:38.491Z,100533.00
2022-12-18T00:43:10.875Z,100540.00
2022-12-18T00:44:44.269Z,100542.00
2022-12-18T00:46:17.902Z,100539.00
2022-12-18T00:47:51.155Z,100542.00
2022-12-18T00:49:24.457Z,100541.00
2022-12-18T00:50:58.327Z,100534.00
2022-12-18T00:52:31.610Z,100546.00
2022-12-18T00:54:04.158Z,100531.00
2022-12-18T00:55:39.432Z,100536.00
2022-12-18T00:57:12.709Z,100528.00
2022-12-18T00:58:45.898Z,100541.00
2022-12-18T01:00:19.351Z,100533.00
2022-12-18T01:01:54.077Z,100538.00
2022-12-18T01:03:27.377Z,100545.00
2022-12-18T01:05:00.580Z,100545.00
2022-12-18T01:06:34.228Z,100542.00
2022-12-18T01:08:06.725Z,100544.00
2022-12-18T01:09:39.951Z,100533.00
2022-12-18T01:11:21.653Z,100557.00
2022-12-18T01:12:54.226Z,100539.00
2022-12-18T01:14:27.337Z,100539.00
2022-12-18T01:15:59.970Z,100531.00
2022-12-18T01:17:34.630Z,100536.00
2022-12-18T01:19:08.126Z,100529.00
2022-12-18T01:20:40.243Z,100527.00
2022-12-18T01:22:13.487Z,100535.00
2022-12-18T01:23:46.048Z,100518.00
2022-12-18T01:25:19.304Z,100530.00
2022-12-18T01:26:53.078Z,100538.00
2022-12-18T01:28:26.145Z,100536.00
2022-12-18T01:29:59.262Z,100535.00
2022-12-18T01:31:35.248Z,100534.00
2022-12-18T01:33:09.668Z,100530.00
2022-12-18T01:34:42.933Z,100537.00
2022-12-18T01:36:22.416Z,100532.00
2022-12-18T01:37:56.854Z,100540.00
2022-12-18T01:39:30.093Z,100545.00
2022-12-18T01:41:03.797Z,100544.00
2022-12-18T01:42:37.126Z,100538.00
2022-12-18T01:44:53.691Z,100549.00
2022-12-18T01:46:29.093Z,100537.00
2022-12-18T01:48:07.428Z,100522.00
2022-12-18T01:49:41.026Z,100532.00
2022-12-18T01:51:14.668Z,100539.00
2022-12-18T01:52:52.472Z,100535.00
2022-12-18T01:54:25.769Z,100536.00
2022-12-18T01:56:00.739Z,100531.00
2022-12-18T01:57:33.814Z,100538.00
2022-12-18T01:59:12.132Z,100519.00
2022-12-18T02:00:44.594Z,100518.00
2022-12-18T02:02:19.714Z,100517.00
2022-12-18T02:03:54.440Z,100524.00
2022-12-18T02:05:46.019Z,100521.00
2022-12-18T02:07:36.243Z,100508.00
2022-12-18T02:09:16.781Z,100538.00
2022-12-18T02:11:05.929Z,100526.00
2022-12-18T02:12:50.045Z,100527.00
2022-12-18T02:14:40.294Z,100520.00
2022-12-18T02:16:26.517Z,100526.00
2022-12-18T02:18:07.944Z,100534.00
2022-12-18T02:20:14.867Z,100538.00
2022-12-18T02:21:59.047Z,100537.00
2022-12-18T02:23:51.957Z,100539.00
2022-12-18T02:26:01.875Z,100543.00
2022-12-18T02:27:39.082Z,100537.00
2022-12-18T02:29:18.270Z,100542.00
2022-12-18T02:30:57.453Z,100543.00
2022-12-18T02:32:39.466Z,100540.00
2022-12-18T02:34:15.390Z,100545.00
2022-12-18T02:35:50.954Z,100543.00
2022-12-18T02:37:25.125Z,100536.00
2022-12-18T02:39:01.336Z,100536.00
2022-12-18T02:40:33.842Z,100534.00
2022-12-18T02:42:09.634Z,100529.00
2022-12-18T02:43:47.078Z,100515.00
2022-12-18T02:45:23.307Z,100510.00
2022-12-18T02:46:58.601Z,100501.00
2022-12-18T02:48:35.696Z,100504.00
2022-12-18T02:50:23.754Z,100513.00
2022-12-18T02:52:11.921Z,100500.00
2022-12-18T02:53:53.199Z,100510.00
2022-12-18T02:55:47.457Z,100503.00
2022-12-18T02:57:35.328Z,100504.00
2022-12-18T02:59:17.733Z,100516.00
2022-12-18T03:01:05.664Z,100511.00
2022-12-18T03:02:47.279Z,100510.00
2022-12-18T03:04:28.811Z,100512.00
2022-12-18T03:06:10.619Z,100506.00
2022-12-18T03:07:47.911Z,100507.00
2022-12-18T03:09:28.081Z,100492.00
2022-12-18T03:11:06.558Z,100501.00
2022-12-18T03:12:48.256Z,100495.00
2022-12-18T03:14:24.292Z,100497.00
2022-12-18T03:16:02.095Z,100494.00
2022-12-18T03:17:37.144Z,100492.00
2022-12-18T03:19:18.366Z,100518.00
2022-12-18T03:20:54.520Z,100500.00
2022-12-18T03:22:32.717Z,100494.00
2022-12-18T03:24:10.235Z,100507.00
2022-12-18T03:25:49.322Z,100511.00
2022-12-18T03:27:26.322Z,100510.00
2022-12-18T03:29:10.979Z,100511.00
2022-12-18T03:30:48.907Z,100516.00
2022-12-18T03:32:30.574Z,100506.00
2022-12-18T03:34:13.038Z,100508.00
2022-12-18T03:35:50.687Z,100507.00
2022-12-18T03:37:24.146Z,100511.00
2022-12-18T03:38:57.862Z,100499.00
2022-12-18T03:40:39.752Z,100505.00
2022-12-18T03:42:23.551Z,100497.00
2022-12-18T03:44:13.218Z,100495.00
2022-12-18T03:45:57.932Z,100492.00
2022-12-18T03:47:39.683Z,100486.00
2022-12-18T03:49:25.936Z,100482.00
2022-12-18T03:51:09.854Z,100479.00
2022-12-18T03:52:52.320Z,100491.00
2022-12-18T03:54:37.505Z,100477.00
2022-12-18T03:56:20.383Z,100479.00
2022-12-18T03:57:54.786Z,100481.00
2022-12-18T03:59:32.185Z,100489.00
2022-12-18T04:01:09.701Z,100487.00
2022-12-18T04:02:51.477Z,100493.00
2022-12-18T04:04:31.432Z,100489.00
2022-12-18T04:06:09.314Z,100485.00
2022-12-18T04:07:47.547Z,100482.00
2022-12-18T04:09:22.463Z,100490.00
2022-12-18T04:10:55.213Z,100489.00
2022-12-18T04:12:32.200Z,100481.00
2022-12-18T04:14:07.483Z,100485.00
2022-12-18T04:15:42.136Z,100476.00
2022-12-18T04:17:20.019Z,100492.00
2022-12-18T04:18:54.010Z,100486.00
2022-12-18T04:20:28.246Z,100476.00
2022-12-18T04:22:00.563Z,100486.00
2022-12-18T04:23:34.775Z,100489.00
2022-12-18T04:25:09.047Z,100488.00
2022-12-18T04:26:46.576Z,100484.00
2022-12-18T04:28:23.667Z,100490.00
2022-12-18T04:29:56.009Z,100490.00
2022-12-18T04:31:30.820Z,100488.00
2022-12-18T04:33:04.897Z,100494.00
2022-12-18T04:34:38.963Z,100483.00
2022-12-18T04:36:13.524Z,100491.00
2022-12-18T04:37:47.533Z,100492.00
2022-12-18T04:39:21.893Z,100482.00
2022-12-18T04:40:57.189Z,100496.00
2022-12-18T04:42:33.087Z,100486.00
2022-12-18T04:44:06.786Z,100480.00
2022-12-18T04:45:39.061Z,100488.00
2022-12-18T04:47:15.319Z,100480.00
2022-12-18T04:48:48.714Z,100478.00
2022-12-18T04:50:21.837Z,100482.00
2022-12-18T04:51:54.968Z,100485.00
2022-12-18T04:53:28.631Z,100475.00
2022-12-18T04:55:01.962Z,100477.00
2022-12-18T04:56:37.881Z,100475.00
2022-12-18T04:58:11.053Z,100482.00
2022-12-18T04:59:44.369Z,100465.00
2022-12-18T05:01:19.962Z,100483.00
2022-12-18T05:02:53.646Z,100476.00
2022-12-18T05:04:27.097Z,100476.00
2022-12-18T05:06:00.372Z,100466.00
2022-12-18T05:07:33.783Z,100479.00
2022-12-18T05:09:07.087Z,100464.00
2022-12-18T05:10:40.387Z,100475.00
2022-12-18T05:12:14.078Z,100472.00
2022-12-18T05:13:48.381Z,100477.00
2022-12-18T05:15:20.574Z,100465.00
2022-12-18T05:16:56.762Z,100469.00
2022-12-18T05:18:36.375Z,100460.00
2022-12-18T05:20:10.401Z,100468.00
2022-12-18T05:21:43.838Z,100470.00
2022-12-18T05:23:17.433Z,100465.00
2022-12-18T05:24:50.556Z,100466.00
2022-12-18T05:26:23.973Z,100462.00
2022-12-18T05:27:56.351Z,100466.00
2022-12-18T05:29:29.934Z,100466.00
2022-12-18T05:31:06.079Z,100467.00
2022-12-18T05:32:38.972Z,100454.00
2022-12-18T05:34:16.296Z,100457.00
2022-12-18T05:35:52.709Z,100447.00
2022-12-18T05:37:25.877Z,100452.00
2022-12-18T05:38:59.118Z,100452.00
2022-12-18T05:40:32.287Z,100449.00
2022-12-18T05:42:06.504Z,100456.00
2022-12-18T05:43:41.981Z,100450.00
2022-12-18T05:45:14.480Z,100455.00
2022-12-18T05:46:47.644Z,100453.00
2022-12-18T05:48:21.364Z,100452.00
2022-12-18T05:49:55.809Z,100448.00
2022-12-18T05:51:29.340Z,100452.00
2022-12-18T05:53:01.507Z,100448.00
2022-12-18T05:54:35.067Z,100456.00
2022-12-18T05:56:11.411Z,100451.00
2022-12-18T05:57:44.608Z,100449.00
2022-12-18T05:59:17.721Z,100460.00
2022-12-18T06:00:51.250Z,100453.00
2022-12-18T06:02:24.541Z,100461.00
2022-12-18T06:03:57.289Z,100460.00
2022-12-18T06:05:37.103Z,100466.00
2022-12-18T06:07:10.397Z,100466.00
2022-12-18T06:08:46.498Z,100467.00
2022-12-18T06:10:20.296Z,100477.00
2022-12-18T06:11:54.382Z,100466.00
2022-12-18T06:13:27.568Z,100473.00
2022-12-18T06:14:59.756Z,100476.00
2022-12-18T06:16:34.401Z,100477.00
2022-12-18T06:18:07.798Z,100468.00
2022-12-18T06:19:41.080Z,100497.00
2022-12-18T06:21:15.663Z,100487.00
2022-12-18T06:22:49.065Z,100492.00
2022-12-18T06:24:22.844Z,100493.00
2022-12-18T06:25:56.258Z,100490.00
2022-12-18T06:27:29.561Z,100494.00
2022-12-18T06:29:04.866Z,100502.00
2022-12-18T06:30:37.992Z,100499.00
2022-12-18T06:32:11.536Z,100502.00
2022-12-18T06:33:44.678Z,100516.00
2022-12-18T06:35:18.198Z,100519.00
2022-12-18T06:36:53.436Z,100531.00
2022-12-18T06:38:25.823Z,100500.00
2022-12-18T06:39:59.072Z,100510.00
2022-12-18T06:41:32.338Z,100509.00
2022-12-18T06:43:05.543Z,100504.00
2022-12-18T06:44:38.756Z,100503.00
2022-12-18T06:46:12.247Z,100505.00
2022-12-18T06:47:45.617Z,100507.00
2022-12-18T06:49:18.750Z,100507.00
2022-12-18T06:50:51.966Z,100514.00
2022-12-18T06:52:26.519Z,100507.00
2022-12-18T06:53:59.749Z,100509.00
2022-12-18T06:55:32.974Z,100513.00
2022-12-18T06:57:06.056Z,100493.00
2022-12-18T06:58:38.733Z,100499.00
2022-12-18T07:00:13.282Z,100502.00
2022-12-18T07:01:49.907Z,100496.00
2022-12-18T07:03:23.265Z,100495.00
2022-12-18T07:04:56.442Z,100491.00
2022-12-18T07:06:29.637Z,100493.00
2022-12-18T07:08:04.322Z,100488.00
2022-12-18T07:09:36.670Z,100490.00
2022-12-18T07:11:09.910Z,100484.00
2022-12-18T07:12:43.265Z,100488.00
2022-12-18T07:14:16.578Z,100478.00
2022-12-18T07:15:50.061Z,100482.00
2022-12-18T07:17:23.291Z,100491.00
2022-12-18T07:18:57.786Z,100485.00
2022-12-18T07:20:30.934Z,100476.00
2022-12-18T07:22:04.101Z,100481.00
2022-12-18T07:23:39.959Z,100486.00
2022-12-18T07:25:13.341Z,100481.00
2022-12-18T07:26:48.286Z,100475.00
2022-12-18T07:28:21.642Z,100469.00
2022-12-18T07:29:55.902Z,100467.00
2022-12-18T07:31:29.850Z,100461.00
2022-12-18T07:33:03.407Z,100471.00
2022-12-18T07:34:36.718Z,100470.00
2022-12-18T07:36:11.983Z,100454.00
2022-12-18T07:37:45.513Z,100462.00
2022-12-18T07:39:20.149Z,100463.00
2022-12-18T07:40:53.609Z,100458.00
2022-12-18T07:42:32.719Z,100465.00
2022-12-18T07:44:06.678Z,100450.00
2022-12-18T07:45:39.831Z,100453.00
2022-12-18T07:47:13.261Z,100450.00
2022-12-18T07:48:49.827Z,100457.00
2022-12-18T07:50:24.910Z,100447.00
2022-12-18T07:51:58.750Z,100459.00
2022-12-18T07:53:32.384Z,100452.00
2022-12-18T07:55:08.095Z,100455.00
2022-12-18T07:56:41.930Z,100457.00
2022-12-18T07:58:15.057Z,100460.00
2022-12-18T07:59:48.243Z,100450.00
2022-12-18T08:01:21.564Z,100461.00
2022-12-18T08:02:55.448Z,100455.00
2022-12-18T08:04:28.956Z,100450.00
2022-12-18T08:06:03.810Z,100453.00
2022-12-18T08:07:36.901Z,100465.00
2022-12-18T08:09:12.033Z,100457.00
2022-12-18T08:10:48.192Z,100462.00
2022-12-18T08:12:21.455Z,100456.00
2022-12-18T08:13:55.610Z,100450.00
2022-12-18T08:15:29.127Z,100457.00
2022-12-18T08:17:02.730Z,100450.00
2022-12-18T08:18:37.799Z,100441.00
2022-12-18T08:20:12.429Z,100444.00
2022-12-18T08:21:45.997Z,100448.00
2022-12-18T08:23:19.254Z,100434.00
2022-12-18T08:24:52.513Z,100437.00
2022-12-18T08:26:30.436Z,100436.00
2022-12-18T08:28:02.641Z,100430.00
2022-12-18T08:29:35.784Z,100432.00
2022-12-18T08:31:10.042Z,100436.00
2022-12-18T08:32:43.659Z,100423.00
2022-12-18T08:34:19.387Z,100411.00
2022-12-18T08:35:52.991Z,100416.00
2022-12-18T08:37:26.363Z,100401.00
2022-12-18T08:38:59.657Z,100402.00
2022-12-18T08:40:34.074Z,100389.00
2022-12-18T08:42:26.177Z,100367.00
2022-12-18T08:44:16.799Z,100395.00
2022-12-18T08:45:50.113Z,100391.00
2022-12-18T08:47:23.716Z,100391.00
2022-12-18T08:48:57.314Z,100389.00
2022-12-18T08:50:30.541Z,100389.00
2022-12-18T08:52:04.173Z,100386.00
2022-12-18T08:53:38.351Z,100383.00
2022-12-18T08:55:12.124Z,100372.00
2022-12-18T08:56:45.361Z,100394.00
2022-12-18T08:58:20.739Z,100393.00
2022-12-18T08:59:53.870Z,100389.00
2022-12-18T09:01:27.192Z,100383.00
2022-12-18T09:03:00.674Z,100392.00
2022-12-18T09:04:34.119Z,100390.00
2022-12-18T09:06:08.566Z,100395.00
2022-12-18T09:07:41.728Z,100393.00
2022-12-18T09:09:15.137Z,100395.00
2022-12-18T09:10:52.048Z,100381.00
2022-12-18T09:12:25.357Z,100377.00
2022-12-18T09:14:01.801Z,100378.00
2022-12-18T09:15:35.219Z,100385.00
2022-12-18T09:17:08.507Z,100388.00
2022-12-18T09:18:42.524Z,100395.00
2022-12-18T09:20:16.184Z,100380.00
2022-12-18T09:21:49.984Z,100377.00
2022-12-18T09:23:23.622Z,100379.00
2022-12-18T09:24:57.011Z,100374.00
2022-12-18T09:26:30.229Z,100370.00
2022-12-18T09:28:04.733Z,100358.00
2022-12-18T09:29:39.333Z,100358.00
2022-12-18T09:31:15.053Z,100343.00
2022-12-18T09:32:48.630Z,100346.00
2022-12-18T09:34:22.709Z,100341.00
2022-12-18T09:35:55.858Z,100352.00
2022-12-18T09:37:28.975Z,100368.00
2022-12-18T09:39:07.551Z,100360.00
2022-12-18T09:40:46.333Z,100355.00
2022-12-18T09:42:23.784Z,100346.00
2022-12-18T09:44:03.351Z,100349.00
2022-12-18T09:45:46.028Z,100336.00
2022-12-18T09:47:25.655Z,100340.00
2022-12-18T09:49:05.940Z,100317.00
2022-12-18T09:50:42.417Z,100317.00
2022-12-18T09:52:23.515Z,100323.00
2022-12-18T09:54:03.642Z,100316.00
2022-12-18T09:55:42.128Z,100314.00
2022-12-18T09:57:20.382Z,100320.00
2022-12-18T09:59:00.926Z,100336.00
2022-12-18T10:00:34.241Z,100341.00
2022-12-18T10:02:22.481Z,100333.00
2022-12-18T10:03:57.232Z,100333.00
2022-12-18T10:05:42.972Z,100335.00
2022-12-18T10:07:23.504Z,100338.00
2022-12-18T10:09:07.301Z,100342.00
2022-12-18T10:10:50.538Z,100339.00
2022-12-18T10:12:32.884Z,100337.00
2022-12-18T10:14:19.004Z,100333.00
2022-12-18T10:16:11.647Z,100331.00
2022-12-18T10:17:53.628Z,100331.00
2022-12-18T10:19:42.117Z,100332.00
2022-12-18T10:21:22.295Z,100319.00
2022-12-18T10:23:05.063Z,100320.00
2022-12-18T10:24:46.970Z,100297.00
2022-12-18T10:26:20.997Z,100306.00
2022-12-18T10:28:00.151Z,100293.00
2022-12-18T10:29:33.497Z,100288.00
2022-12-18T10:31:07.916Z,100278.00
2022-12-18T10:32:41.977Z,100276.00
2022-12-18T10:34:16.788Z,100262.00
2022-12-18T10:35:53.789Z,100261.00
2022-12-18T10:37:29.866Z,100260.00
2022-12-18T10:39:18.455Z,100259.00
2022-12-18T10:40:55.130Z,100249.00
2022-12-18T10:42:28.486Z,100256.00
2022-12-18T10:44:17.963Z,100236.00
2022-12-18T10:46:17.968Z,100246.00
2022-12-18T10:47:52.132Z,100230.00
2022-12-18T10:49:30.718Z,100233.00
2022-12-18T10:51:13.708Z,100230.00
2022-12-18T10:52:58.473Z,100234.00
2022-12-18T10:54:34.719Z,100225.00
2022-12-18T10:56:09.102Z,100229.00
2022-12-18T10:57:42.794Z,100212.00
2022-12-18T10:59:19.531Z,100207.00
2022-12-18T11:01:13.072Z,100216.00
2022-12-18T11:02:46.622Z,100227.00
2022-12-18T11:04:24.359Z,100220.00
2022-12-18T11:06:08.940Z,100217.00
2022-12-18T11:07:54.636Z,100212.00
2022-12-18T11:09:32.437Z,100206.00
2022-12-18T11:11:18.094Z,100217.00
2022-12-18T11:12:51.815Z,100215.00
2022-12-18T11:14:29.132Z,100198.00
2022-12-18T11:16:02.547Z,100209.00
2022-12-18T11:17:38.042Z,100210.00
2022-12-18T11:19:34.840Z,100205.00
2022-12-18T11:21:13.564Z,100211.00
2022-12-18T11:22:59.367Z,100211.00
2022-12-18T11:24:35.860Z,100215.00
2022-12-18T11:26:12.061Z,100204.00
2022-12-18T11:27:50.367Z,100202.00
2022-12-18T11:29:34.060Z,100192.00
2022-12-18T11:31:25.817Z,100199.00
2022-12-18T11:33:07.845Z,100194.00
2022-12-18T11:34:45.778Z,100199.00
2022-12-18T11:36:23.574Z,100205.00
2022-12-18T11:38:04.739Z,100202.00
2022-12-18T11:39:44.824Z,100204.00
2022-12-18T11:41:49.773Z,100194.00
2022-12-18T11:43:31.639Z,100184.00
2022-12-18T11:45:29.910Z,100178.00
2022-12-18T11:47:10.775Z,100185.00
2022-12-18T11:48:51.447Z,100190.00
2022-12-18T11:50:31.713Z,100186.00
2022-12-18T11:52:19.021Z,100170.00
2022-12-18T11:53:53.992Z,100182.00
2022-12-18T11:55:43.981Z,100168.00
2022-12-18T11:57:36.489Z,100157.00
2022-12-18T11:59:22.940Z,100163.00
2022-12-18T12:01:08.245Z,100153.00
2022-12-18T12:03:14.136Z,100155.00
2022-12-18T12:05:02.862Z,100144.00
2022-12-18T12:06:50.352Z,100141.00
2022-12-18T12:08:42.570Z,100136.00
2022-12-18T12:10:40.851Z,100131.00
2022-12-18T12:12:48.713Z,100137.00
2022-12-18T12:14:45.682Z,100143.00
2022-12-18T12:16:30.367Z,100130.00
2022-12-18T12:18:16.055Z,100147.00
2022-12-18T12:20:01.238Z,100136.00
2022-12-18T12:21:42.468Z,100132.00
2022-12-18T12:23:29.729Z,100131.00
2022-12-18T12:25:28.232Z,100138.00
2022-12-18T12:27:18.755Z,100139.00
2022-12-18T12:29:15.500Z,100138.00
2022-12-18T12:31:07.816Z,100133.00
2022-12-18T12:33:06.495Z,100132.00
2022-12-18T12:35:00.948Z,100126.00
2022-12-18T12:36:50.492Z,100133.00
2022-12-18T12:38:32.964Z,100131.00
2022-12-18T12:40:49.143Z,100133.00
2022-12-18T12:42:38.702Z,100130.00
2022-12-18T12:44:27.794Z,100125.00
2022-12-18T12:46:07.531Z,100122.00
2022-12-18T12:47:47.196Z,100125.00
2022-12-18T12:49:27.587Z,100129.00
2022-12-18T12:51:03.746Z,100116.00
2022-12-18T12:52:44.438Z,100116.00
2022-12-18T12:54:25.563Z,100124.00
2022-12-18T12:56:00.156Z,100116.00
2022-12-18T12:57:40.864Z,100119.00
2022-12-18T12:59:25.306Z,100122.00
2022-12-18T13:01:12.000Z,100132.00
2022-12-18T13:02:54.849Z,100116.00
2022-12-18T13:04:40.322Z,100113.00
2022-12-18T13:06:30.506Z,100115.00
2022-12-18T13:08:08.342Z,100108.00
2022-12-18T13:12:00.717Z,100113.00
2022-12-18T13:13:52.082Z,100117.00
2022-12-18T13:15:35.095Z,100126.00
2022-12-18T13:17:31.992Z,100117.00
2022-12-18T13:19:05.429Z,100124.00
2022-12-18T13:20:42.545Z,100131.00
2022-12-18T13:22:26.314Z,100129.00
2022-12-18T13:24:22.573Z,100122.00
2022-12-18T13:25:58.298Z,100115.00
2022-12-18T13:28:13.598Z,100108.00
2022-12-18T13:29:48.425Z,100111.00
2022-12-18T13:32:01.914Z,100116.00
2022-12-18T13:34:24.349Z,100114.00
2022-12-18T13:35:42.949Z,100113.00
2022-12-18T13:37:43.277Z,100131.00
2022-12-18T13:39:37.270Z,100107.00
2022-12-18T13:41:26.676Z,100113.00
2022-12-18T13:43:16.048Z,100110.00
2022-12-18T13:44:49.690Z,100117.00
2022-12-18T13:46:30.362Z,100110.00
2022-12-18T13:48:04.247Z,100126.00
2022-12-18T13:49:41.705Z,100126.00
2022-12-18T13:51:21.516Z,100135.00
2022-12-18T13:52:55.890Z,100126.00
2022-12-18T13:54:37.771Z,100130.00
2022-12-18T13:56:11.067Z,100133.00
2022-12-18T13:57:44.778Z,100138.00
2022-12-18T13:59:25.081Z,100134.00
2022-12-18T14:01:02.423Z,100127.00
2022-12-18T14:02:35.817Z,100141.00
2022-12-18T14:04:14.576Z,100133.00
2022-12-18T14:05:58.453Z,100123.00
2022-12-18T14:07:34.592Z,100132.00
2022-12-18T14:09:21.826Z,100125.00
2022-12-18T14:10:55.253Z,100130.00
2022-12-18T14:12:49.129Z,100119.00
2022-12-18T14:14:29.472Z,100132.00
2022-12-18T14:16:09.812Z,100127.00
2022-12-18T14:17:45.262Z,100132.00
2022-12-18T14:19:20.423Z,100125.00
2022-12-18T14:20:56.280Z,100120.00
2022-12-18T14:22:30.519Z,100126.00
2022-12-18T14:24:19.457Z,100121.00
2022-12-18T14:25:53.113Z,100114.00
2022-12-18T14:27:28.288Z,100120.00
2022-12-18T14:29:03.755Z,100112.00
2022-12-18T14:30:42.031Z,100101.00
2022-12-18T14:32:19.336Z,100107.00
2022-12-18T14:33:54.088Z,100112.00
2022-12-18T14:35:27.579Z,100097.00
2022-12-18T14:37:01.751Z,100093.00
2022-12-18T14:38:37.614Z,100094.00
2022-12-18T14:40:15.974Z,100095.00
2022-12-18T14:41:51.331Z,100099.00
2022-12-18T14:43:25.171Z,100077.00
2022-12-18T14:45:43.155Z,100078.00
2022-12-18T14:47:18.448Z,100087.00
2022-12-18T14:48:51.635Z,100068.00
2022-12-18T14:50:25.221Z,100061.00
2022-12-18T14:52:00.975Z,100067.00
2022-12-18T14:53:42.362Z,100067.00
2022-12-18T14:55:18.698Z,100076.00
2022-12-18T14:57:00.083Z,100065.00
2022-12-18T14:58:33.708Z,100050.00
2022-12-18T15:00:17.162Z,100045.00
2022-12-18T15:02:05.883Z,100052.00
2022-12-18T15:03:46.203Z,100048.00
2022-12-18T15:05:26.380Z,100051.00
2022-12-18T15:07:17.009Z,100042.00
2022-12-18T15:08:52.088Z,100041.00
2022-12-18T15:10:28.376Z,100055.00
2022-12-18T15:12:03.334Z,100047.00
2022-12-18T15:13:36.707Z,100040.00
2022-12-18T15:15:46.641Z,100038.00
2022-12-18T15:17:24.759Z,100037.00
2022-12-18T15:19:00.046Z,100047.00
2022-12-18T15:20:41.013Z,100039.00
2022-12-18T15:22:28.086Z,100040.00
2022-12-18T15:24:01.468Z,100038.00
2022-12-18T15:25:38.893Z,100042.00
2022-12-18T15:27:25.008Z,100036.00
2022-12-18T15:29:00.852Z,100031.00
2022-12-18T15:30:34.101Z,100033.00
2022-12-18T15:32:23.182Z,100030.00
2022-12-18T15:34:16.060Z,100037.00
2022-12-18T15:35:58.406Z,100032.00
2022-12-18T15:37:32.081Z,100025.00
2022-12-18T15:39:06.687Z,100032.00
2022-12-18T15:40:40.110Z,100030.00
2022-12-18T15:42:31.211Z,100025.00
2022-12-18T15:44:17.950Z,100036.00
2022-12-18T15:45:51.387Z,100036.00
2022-12-18T15:47:26.099Z,100018.00
2022-12-18T15:49:02.697Z,100022.00
2022-12-18T15:50:36.422Z,100028.00
2022-12-18T15:52:26.630Z,100031.00
2022-12-18T15:54:04.636Z,100034.00
2022-12-18T15:56:00.889Z,100038.00
2022-12-18T15:57:33.719Z,100035.00
2022-12-18T15:59:12.191Z,100030.00
2022-12-18T16:00:45.467Z,100021.00
2022-12-18T16:02:24.016Z,100022.00
2022-12-18T16:03:59.228Z,100031.00
2022-12-18T16:05:34.135Z,100024.00
2022-12-18T16:07:22.858Z,100022.00
2022-12-18T16:08:58.534Z,100027.00
2022-12-18T16:10:32.053Z,100030.00
2022-12-18T16:12:06.656Z,100033.00
2022-12-18T16:13:40.240Z,100030.00
2022-12-18T16:15:22.514Z,100025.00
2022-12-18T16:17:01.062Z,100026.00
2022-12-18T16:18:34.407Z,100025.00
2022-12-18T16:20:15.882Z,100022.00
2022-12-18T16:21:51.296Z,100020.00
2022-12-18T16:23:25.302Z,100020.00
2022-12-18T16:25:00.194Z,100010.00
2022-12-18T16:26:34.462Z,100014.00
2022-12-18T16:28:07.680Z,100008.00
2022-12-18T16:29:40.905Z,100012.00
2022-12-18T16:31:14.126Z,100003.00
2022-12-18T16:32:47.966Z,100004.00
2022-12-18T16:34:26.841Z,99994.00
2022-12-18T16:36:03.288Z,100004.00
2022-12-18T16:37:36.811Z,100011.00
2022-12-18T16:39:09.970Z,100015.00
2022-12-18T16:41:03.780Z,100006.00
2022-12-18T16:42:38.593Z,100016.00
2022-12-18T16:44:12.867Z,100020.00
2022-12-18T16:45:46.022Z,100029.00
2022-12-18T16:47:27.438Z,100026.00
2022-12-18T16:49:01.528Z,100028.00
2022-12-18T16:50:34.657Z,100023.00
2022-12-18T16:52:09.785Z,100022.00
2022-12-18T16:53:43.186Z,100023.00
2022-12-18T16:55:17.969Z,100028.00
2022-12-18T16:56:53.108Z,100035.00
2022-12-18T16:58:26.462Z,100017.00
2022-12-18T17:00:04.733Z,100014.00
2022-12-18T17:01:38.736Z,100017.00
2022-12-18T17:03:12.288Z,100003.00
2022-12-18T17:04:46.832Z,100013.00
2022-12-18T17:06:20.058Z,100019.00
2022-12-18T17:07:54.854Z,100008.00
2022-12-18T17:09:28.313Z,100014.00
2022-12-18T17:11:06.359Z,100011.00
2022-12-18T17:12:39.698Z,100013.00
2022-12-18T17:14:17.606Z,100011.00
2022-12-18T17:15:51.352Z,100002.00
2022-12-18T17:17:24.695Z,100012.00
2022-12-18T17:18:57.824Z,100008.00
2022-12-18T17:20:32.017Z,99987.00
2022-12-18T17:22:05.778Z,99994.00
2022-12-18T17:23:40.768Z,99987.00
2022-12-18T17:25:15.600Z,99983.00
2022-12-18T17:26:52.575Z,99995.00
2022-12-18T17:28:29.859Z,99972.00
2022-12-18T17:30:03.204Z,99991.00
2022-12-18T17:31:36.756Z,99983.00
2022-12-18T17:33:11.005Z,99992.00
2022-12-18T17:34:44.517Z,99990.00
2022-12-18T17:36:18.605Z,99976.00
2022-12-18T17:37:52.395Z,99989.00
2022-12-18T17:39:28.588Z,99977.00
2022-12-18T17:41:03.225Z,99986.00
2022-12-18T17:42:36.407Z,99994.00
2022-12-18T17:44:11.631Z,99991.00
2022-12-18T17:45:47.182Z,99993.00
2022-12-18T17:47:20.408Z,99999.00
2022-12-18T17:48:56.508Z,99991.00
2022-12-18T17:50:29.605Z,99990.00
2022-12-18T17:52:02.858Z,99998.00
2022-12-18T17:53:39.423Z,99983.00
2022-12-18T17:55:15.844Z,99998.00
2022-12-18T17:56:49.188Z,99998.00
2022-12-18T17:58:23.702Z,99987.00
2022-12-18T17:59:57.107Z,99990.00
2022-12-18T18:01:30.414Z,99989.00
2022-12-18T18:03:05.154Z,99997.00
2022-12-18T18:04:38.446Z,100004.00
2022-12-18T18:06:12.923Z,99995.00
2022-12-18T18:07:46.405Z,100008.00
2022-12-18T18:09:20.531Z,100018.00
2022-12-18T18:11:15.986Z,99998.00
2022-12-18T18:13:07.627Z,100012.00
2022-12-18T18:14:39.893Z,100011.00
2022-12-18T18:16:13.547Z,100002.00
2022-12-18T18:17:46.770Z,99998.00
2022-12-18T18:19:23.176Z,99985.00
2022-12-18T18:20:56.758Z,99991.00
2022-12-18T18:22:30.872Z,99990.00
2022-12-18T18:24:05.487Z,100001.00
2022-12-18T18:25:38.596Z,99994.00
2022-12-18T18:27:13.505Z,99985.00
2022-12-18T18:28:46.883Z,99992.00
2022-12-18T18:30:20.663Z,100001.00
2022-12-18T18:31:54.216Z,99997.00
2022-12-18T18:33:27.857Z,99997.00
2022-12-18T18:35:01.012Z,100004.00
2022-12-18T18:36:34.105Z,100013.00
2022-12-18T18:38:08.386Z,100006.00
2022-12-18T18:39:42.024Z,99995.00
2022-12-18T18:41:15.802Z,100000.00